CheckWX is a tool to help pilots better visualize weather data.  It is not intended as a substitute for an official pre-flight weather briefing.

11:45:03 UTC

EGGW METAR
London Luton Airport
London, United Kingdom
Current

25 mins ago

EGGW 071120Z AUTO 25014KT 9999 SCT043 18/07 Q1020
Observed
Jul-7 @ 11:20 UTC
Wind
  • 250° at 14 KTS
Visibility
10,000+ meters
Flight Rules
VFR
Cloud Levels
  • Scattered at 4,300' AGL
Temperature
18°C / 64°F
Dewpoint
C / 45°F
Humidity
49%
Altimeter
30.12" Hg
Pressure
1019.92 hPa
Previous

55 mins ago

EGGW 071050Z AUTO 26011KT 9999 SCT040 SCT049 18/09 Q1020
Observed
Jul-7 @ 10:50 UTC
Wind
  • 260° at 11 KTS
Visibility
10,000+ meters
Flight Rules
VFR
Cloud Levels
  • Scattered at 4,000' AGL
  • Scattered at 4,900' AGL
Temperature
18°C / 64°F
Dewpoint
C / 48°F
Humidity
56%
Altimeter
30.12" Hg
Pressure
1019.92 hPa
Previous

1 hour ago

EGGW 071020Z AUTO 26013KT 9999 SCT041 18/08 Q1020
Observed
Jul-7 @ 10:20 UTC
Wind
  • 260° at 13 KTS
Visibility
10,000+ meters
Flight Rules
VFR
Cloud Levels
  • Scattered at 4,100' AGL
Temperature
18°C / 64°F
Dewpoint
C / 46°F
Humidity
52%
Altimeter
30.12" Hg
Pressure
1019.92 hPa